sensor_id;sensor_type;location;lat;lon;timestamp;P1;durP1;ratioP1;P2;durP2;ratioP2
46777;SDS011;32536;47.128;8.746;2022-07-06T00:01:31;2.45;;;1.20;;
46777;SDS011;32536;47.128;8.746;2022-07-06T00:03:57;1.73;;;1.08;;
46777;SDS011;32536;47.128;8.746;2022-07-06T00:06:24;1.80;;;0.93;;
46777;SDS011;32536;47.128;8.746;2022-07-06T00:08:51;1.60;;;0.90;;
46777;SDS011;32536;47.128;8.746;2022-07-06T00:11:18;2.45;;;1.38;;
46777;SDS011;32536;47.128;8.746;2022-07-06T00:13:44;2.38;;;1.05;;
46777;SDS011;32536;47.128;8.746;2022-07-06T00:16:11;2.45;;;1.25;;
46777;SDS011;32536;47.128;8.746;2022-07-06T00:18:38;2.45;;;0.70;;
46777;SDS011;32536;47.128;8.746;2022-07-06T00:21:05;2.60;;;1.52;;
46777;SDS011;32536;47.128;8.746;2022-07-06T00:23:32;2.42;;;1.27;;
46777;SDS011;32536;47.128;8.746;2022-07-06T00:25:59;3.67;;;1.40;;
46777;SDS011;32536;47.128;8.746;2022-07-06T00:28:26;3.17;;;1.35;;
46777;SDS011;32536;47.128;8.746;2022-07-06T00:30:53;2.05;;;0.95;;
46777;SDS011;32536;47.128;8.746;2022-07-06T00:33:20;2.17;;;1.20;;
46777;SDS011;32536;47.128;8.746;2022-07-06T00:35:48;1.55;;;0.98;;
46777;SDS011;32536;47.128;8.746;2022-07-06T00:38:15;2.45;;;1.40;;
46777;SDS011;32536;47.128;8.746;2022-07-06T00:40:42;2.45;;;1.10;;
46777;SDS011;32536;47.128;8.746;2022-07-06T00:43:09;3.05;;;1.27;;
46777;SDS011;32536;47.128;8.746;2022-07-06T00:45:36;2.25;;;1.10;;
46777;SDS011;32536;47.128;8.746;2022-07-06T00:48:03;2.25;;;1.02;;
46777;SDS011;32536;47.128;8.746;2022-07-06T00:50:29;1.80;;;1.00;;
46777;SDS011;32536;47.128;8.746;2022-07-06T00:52:59;2.22;;;0.82;;
46777;SDS011;32536;47.128;8.746;2022-07-06T00:55:29;1.90;;;1.00;;
46777;SDS011;32536;47.128;8.746;2022-07-06T00:57:59;3.13;;;1.42;;
46777;SDS011;32536;47.128;8.746;2022-07-06T01:00:29;5.30;;;2.10;;
46777;SDS011;32536;47.128;8.746;2022-07-06T01:02:57;4.40;;;1.92;;
46777;SDS011;32536;47.128;8.746;2022-07-06T01:05:24;3.75;;;2.13;;
46777;SDS011;32536;47.128;8.746;2022-07-06T01:07:53;4.63;;;2.17;;
46777;SDS011;32536;47.128;8.746;2022-07-06T01:10:20;3.10;;;1.70;;
46777;SDS011;32536;47.128;8.746;2022-07-06T01:12:48;2.40;;;1.35;;
46777;SDS011;32536;47.128;8.746;2022-07-06T01:15:17;2.42;;;1.45;;
46777;SDS011;32536;47.128;8.746;2022-07-06T01:17:48;2.45;;;1.55;;
46777;SDS011;32536;47.128;8.746;2022-07-06T01:20:17;2.38;;;1.10;;
46777;SDS011;32536;47.128;8.746;2022-07-06T01:22:45;2.03;;;1.20;;
46777;SDS011;32536;47.128;8.746;2022-07-06T01:25:14;3.40;;;1.35;;
46777;SDS011;32536;47.128;8.746;2022-07-06T01:27:42;2.40;;;1.33;;
46777;SDS011;32536;47.128;8.746;2022-07-06T01:30:11;2.97;;;1.52;;
46777;SDS011;32536;47.128;8.746;2022-07-06T01:32:40;2.85;;;1.13;;
46777;SDS011;32536;47.128;8.746;2022-07-06T01:35:10;3.03;;;1.13;;
46777;SDS011;32536;47.128;8.746;2022-07-06T01:37:39;2.00;;;1.20;;
46777;SDS011;32536;47.128;8.746;2022-07-06T01:40:08;3.05;;;1.52;;
46777;SDS011;32536;47.128;8.746;2022-07-06T01:42:37;1.85;;;1.10;;
46777;SDS011;32536;47.128;8.746;2022-07-06T01:45:05;1.95;;;1.10;;
46777;SDS011;32536;47.128;8.746;2022-07-06T01:47:33;1.73;;;1.02;;
46777;SDS011;32536;47.128;8.746;2022-07-06T01:50:00;2.53;;;1.38;;
46777;SDS011;32536;47.128;8.746;2022-07-06T01:52:33;3.20;;;1.58;;
46777;SDS011;32536;47.128;8.746;2022-07-06T01:55:00;1.80;;;1.20;;
46777;SDS011;32536;47.128;8.746;2022-07-06T01:57:27;2.03;;;1.00;;
46777;SDS011;32536;47.128;8.746;2022-07-06T01:59:53;1.75;;;1.08;;
46777;SDS011;32536;47.128;8.746;2022-07-06T02:02:20;2.00;;;0.90;;
46777;SDS011;32536;47.128;8.746;2022-07-06T02:04:47;1.52;;;0.98;;
46777;SDS011;32536;47.128;8.746;2022-07-06T02:07:14;2.28;;;0.90;;
46777;SDS011;32536;47.128;8.746;2022-07-06T02:09:40;1.15;;;0.73;;
46777;SDS011;32536;47.128;8.746;2022-07-06T02:12:07;2.15;;;0.80;;
46777;SDS011;32536;47.128;8.746;2022-07-06T02:14:34;2.50;;;1.40;;
46777;SDS011;32536;47.128;8.746;2022-07-06T02:17:01;1.70;;;0.70;;
46777;SDS011;32536;47.128;8.746;2022-07-06T02:19:27;2.45;;;1.05;;
46777;SDS011;32536;47.128;8.746;2022-07-06T02:21:54;1.40;;;0.80;;
46777;SDS011;32536;47.128;8.746;2022-07-06T02:24:21;1.67;;;0.70;;
46777;SDS011;32536;47.128;8.746;2022-07-06T02:26:48;2.95;;;1.70;;
46777;SDS011;32536;47.128;8.746;2022-07-06T02:29:14;2.80;;;1.20;;
46777;SDS011;32536;47.128;8.746;2022-07-06T02:31:41;3.47;;;1.65;;
46777;SDS011;32536;47.128;8.746;2022-07-06T02:34:08;3.60;;;1.52;;
46777;SDS011;32536;47.128;8.746;2022-07-06T02:36:34;3.58;;;1.50;;
46777;SDS011;32536;47.128;8.746;2022-07-06T02:39:01;4.47;;;1.88;;
46777;SDS011;32536;47.128;8.746;2022-07-06T02:41:28;3.03;;;1.65;;
46777;SDS011;32536;47.128;8.746;2022-07-06T02:43:55;4.80;;;2.20;;
46777;SDS011;32536;47.128;8.746;2022-07-06T02:46:21;5.15;;;1.65;;
46777;SDS011;32536;47.128;8.746;2022-07-06T02:48:48;3.58;;;1.33;;
46777;SDS011;32536;47.128;8.746;2022-07-06T02:51:15;3.15;;;1.55;;
46777;SDS011;32536;47.128;8.746;2022-07-06T02:53:42;2.63;;;1.15;;
46777;SDS011;32536;47.128;8.746;2022-07-06T02:56:08;4.20;;;1.25;;
46777;SDS011;32536;47.128;8.746;2022-07-06T02:58:35;2.67;;;1.23;;
46777;SDS011;32536;47.128;8.746;2022-07-06T03:01:02;2.33;;;1.20;;
46777;SDS011;32536;47.128;8.746;2022-07-06T03:03:29;1.83;;;1.02;;
46777;SDS011;32536;47.128;8.746;2022-07-06T03:05:56;1.27;;;0.77;;
46777;SDS011;32536;47.128;8.746;2022-07-06T03:08:22;1.48;;;0.90;;
46777;SDS011;32536;47.128;8.746;2022-07-06T03:10:49;2.03;;;1.13;;
46777;SDS011;32536;47.128;8.746;2022-07-06T03:13:16;2.13;;;1.13;;
46777;SDS011;32536;47.128;8.746;2022-07-06T03:15:42;6.55;;;1.67;;
46777;SDS011;32536;47.128;8.746;2022-07-06T03:18:09;2.17;;;1.25;;
46777;SDS011;32536;47.128;8.746;2022-07-06T03:23:34;2.97;;;1.17;;
46777;SDS011;32536;47.128;8.746;2022-07-06T03:26:00;3.40;;;1.10;;
46777;SDS011;32536;47.128;8.746;2022-07-06T03:28:27;2.05;;;1.10;;
46777;SDS011;32536;47.128;8.746;2022-07-06T03:30:54;1.58;;;0.80;;
46777;SDS011;32536;47.128;8.746;2022-07-06T03:33:21;1.70;;;0.88;;
46777;SDS011;32536;47.128;8.746;2022-07-06T03:35:48;1.58;;;0.90;;
46777;SDS011;32536;47.128;8.746;2022-07-06T03:38:14;1.63;;;0.73;;
46777;SDS011;32536;47.128;8.746;2022-07-06T03:40:41;1.50;;;0.80;;
46777;SDS011;32536;47.128;8.746;2022-07-06T03:43:08;2.00;;;1.08;;
46777;SDS011;32536;47.128;8.746;2022-07-06T03:45:35;2.00;;;0.90;;
46777;SDS011;32536;47.128;8.746;2022-07-06T03:48:01;1.92;;;1.08;;
46777;SDS011;32536;47.128;8.746;2022-07-06T03:50:28;2.22;;;1.00;;
46777;SDS011;32536;47.128;8.746;2022-07-06T03:52:56;3.63;;;1.15;;
46777;SDS011;32536;47.128;8.746;2022-07-06T03:55:22;4.13;;;1.60;;
46777;SDS011;32536;47.128;8.746;2022-07-06T03:57:49;3.20;;;1.08;;
46777;SDS011;32536;47.128;8.746;2022-07-06T04:00:16;4.45;;;1.45;;
46777;SDS011;32536;47.128;8.746;2022-07-06T04:02:43;2.85;;;1.42;;
46777;SDS011;32536;47.128;8.746;2022-07-06T04:05:10;5.30;;;1.92;;
46777;SDS011;32536;47.128;8.746;2022-07-06T04:07:36;4.47;;;2.00;;
46777;SDS011;32536;47.128;8.746;2022-07-06T04:10:03;3.95;;;1.55;;
46777;SDS011;32536;47.128;8.746;2022-07-06T04:12:31;4.63;;;1.50;;
46777;SDS011;32536;47.128;8.746;2022-07-06T04:14:58;5.20;;;1.48;;
46777;SDS011;32536;47.128;8.746;2022-07-06T04:17:25;3.58;;;1.55;;
46777;SDS011;32536;47.128;8.746;2022-07-06T04:20:10;3.25;;;1.48;;
46777;SDS011;32536;47.128;8.746;2022-07-06T04:22:38;2.60;;;1.30;;
46777;SDS011;32536;47.128;8.746;2022-07-06T04:25:05;2.75;;;1.23;;
46777;SDS011;32536;47.128;8.746;2022-07-06T04:27:33;3.65;;;1.48;;
46777;SDS011;32536;47.128;8.746;2022-07-06T04:30:00;2.42;;;1.30;;
46777;SDS011;32536;47.128;8.746;2022-07-06T04:32:29;2.45;;;1.15;;
46777;SDS011;32536;47.128;8.746;2022-07-06T04:34:55;2.00;;;1.13;;
46777;SDS011;32536;47.128;8.746;2022-07-06T04:37:22;1.83;;;1.10;;
46777;SDS011;32536;47.128;8.746;2022-07-06T04:39:49;1.70;;;0.77;;
46777;SDS011;32536;47.128;8.746;2022-07-06T04:42:16;1.35;;;0.77;;
46777;SDS011;32536;47.128;8.746;2022-07-06T04:44:43;1.40;;;0.80;;
46777;SDS011;32536;47.128;8.746;2022-07-06T04:47:09;2.05;;;1.08;;
46777;SDS011;32536;47.128;8.746;2022-07-06T04:49:37;2.63;;;1.65;;
46777;SDS011;32536;47.128;8.746;2022-07-06T04:52:04;2.58;;;1.27;;
46777;SDS011;32536;47.128;8.746;2022-07-06T04:54:31;2.50;;;1.40;;
46777;SDS011;32536;47.128;8.746;2022-07-06T04:56:58;2.15;;;1.00;;
46777;SDS011;32536;47.128;8.746;2022-07-06T04:59:25;2.42;;;1.08;;
46777;SDS011;32536;47.128;8.746;2022-07-06T05:01:51;1.52;;;1.10;;
46777;SDS011;32536;47.128;8.746;2022-07-06T05:04:18;1.85;;;0.73;;
46777;SDS011;32536;47.128;8.746;2022-07-06T05:06:45;1.70;;;1.05;;
46777;SDS011;32536;47.128;8.746;2022-07-06T05:09:12;1.17;;;0.80;;
46777;SDS011;32536;47.128;8.746;2022-07-06T05:11:39;3.33;;;1.60;;
46777;SDS011;32536;47.128;8.746;2022-07-06T05:14:06;3.80;;;1.92;;
46777;SDS011;32536;47.128;8.746;2022-07-06T05:16:33;3.47;;;1.65;;
46777;SDS011;32536;47.128;8.746;2022-07-06T05:19:00;4.82;;;2.25;;
46777;SDS011;32536;47.128;8.746;2022-07-06T05:21:27;4.45;;;2.25;;
46777;SDS011;32536;47.128;8.746;2022-07-06T05:23:53;5.15;;;2.10;;
46777;SDS011;32536;47.128;8.746;2022-07-06T05:26:20;6.25;;;2.28;;
46777;SDS011;32536;47.128;8.746;2022-07-06T05:28:47;6.45;;;2.70;;
46777;SDS011;32536;47.128;8.746;2022-07-06T05:31:13;5.57;;;2.28;;
46777;SDS011;32536;47.128;8.746;2022-07-06T05:33:40;3.70;;;1.77;;
46777;SDS011;32536;47.128;8.746;2022-07-06T05:36:07;3.22;;;1.58;;
46777;SDS011;32536;47.128;8.746;2022-07-06T05:38:34;3.28;;;1.65;;
46777;SDS011;32536;47.128;8.746;2022-07-06T05:41:01;2.97;;;1.70;;
46777;SDS011;32536;47.128;8.746;2022-07-06T05:43:28;5.95;;;1.95;;
46777;SDS011;32536;47.128;8.746;2022-07-06T05:45:54;3.63;;;1.73;;
46777;SDS011;32536;47.128;8.746;2022-07-06T05:48:21;2.83;;;1.50;;
46777;SDS011;32536;47.128;8.746;2022-07-06T05:51:06;2.25;;;1.25;;
46777;SDS011;32536;47.128;8.746;2022-07-06T05:53:33;3.85;;;1.83;;
46777;SDS011;32536;47.128;8.746;2022-07-06T05:56:00;4.57;;;1.67;;
46777;SDS011;32536;47.128;8.746;2022-07-06T05:58:27;2.05;;;1.08;;
46777;SDS011;32536;47.128;8.746;2022-07-06T06:00:53;2.75;;;1.08;;
46777;SDS011;32536;47.128;8.746;2022-07-06T06:03:20;1.73;;;1.02;;
46777;SDS011;32536;47.128;8.746;2022-07-06T06:05:47;1.48;;;0.93;;
46777;SDS011;32536;47.128;8.746;2022-07-06T06:08:14;2.45;;;1.15;;
46777;SDS011;32536;47.128;8.746;2022-07-06T06:10:40;2.85;;;1.15;;
46777;SDS011;32536;47.128;8.746;2022-07-06T06:13:07;1.75;;;0.80;;
46777;SDS011;32536;47.128;8.746;2022-07-06T06:15:34;2.30;;;1.10;;
46777;SDS011;32536;47.128;8.746;2022-07-06T06:18:01;1.92;;;1.10;;
46777;SDS011;32536;47.128;8.746;2022-07-06T06:20:29;3.00;;;0.98;;
46777;SDS011;32536;47.128;8.746;2022-07-06T06:22:57;1.75;;;0.80;;
46777;SDS011;32536;47.128;8.746;2022-07-06T06:25:29;1.70;;;0.95;;
46777;SDS011;32536;47.128;8.746;2022-07-06T06:27:57;1.83;;;0.90;;
46777;SDS011;32536;47.128;8.746;2022-07-06T06:30:24;3.20;;;0.80;;
46777;SDS011;32536;47.128;8.746;2022-07-06T06:32:51;1.73;;;0.90;;
46777;SDS011;32536;47.128;8.746;2022-07-06T06:35:38;1.30;;;0.70;;
46777;SDS011;32536;47.128;8.746;2022-07-06T06:38:11;1.75;;;0.98;;
46777;SDS011;32536;47.128;8.746;2022-07-06T06:40:38;1.08;;;0.50;;
46777;SDS011;32536;47.128;8.746;2022-07-06T06:43:05;1.45;;;0.73;;
46777;SDS011;32536;47.128;8.746;2022-07-06T06:45:32;1.65;;;0.95;;
46777;SDS011;32536;47.128;8.746;2022-07-06T06:47:59;1.58;;;0.80;;
46777;SDS011;32536;47.128;8.746;2022-07-06T06:50:26;1.85;;;0.90;;
46777;SDS011;32536;47.128;8.746;2022-07-06T06:52:53;1.33;;;0.70;;
46777;SDS011;32536;47.128;8.746;2022-07-06T06:55:20;2.42;;;0.63;;
46777;SDS011;32536;47.128;8.746;2022-07-06T06:57:47;1.65;;;0.73;;
46777;SDS011;32536;47.128;8.746;2022-07-06T07:00:14;1.55;;;0.75;;
46777;SDS011;32536;47.128;8.746;2022-07-06T07:02:41;1.45;;;0.43;;
46777;SDS011;32536;47.128;8.746;2022-07-06T07:05:08;1.67;;;1.10;;
46777;SDS011;32536;47.128;8.746;2022-07-06T07:07:35;1.45;;;0.70;;
46777;SDS011;32536;47.128;8.746;2022-07-06T07:10:03;1.45;;;0.80;;
46777;SDS011;32536;47.128;8.746;2022-07-06T07:12:31;2.05;;;1.10;;
46777;SDS011;32536;47.128;8.746;2022-07-06T07:14:59;2.22;;;0.98;;
46777;SDS011;32536;47.128;8.746;2022-07-06T07:17:26;2.00;;;0.80;;
46777;SDS011;32536;47.128;8.746;2022-07-06T07:19:53;1.40;;;0.77;;
46777;SDS011;32536;47.128;8.746;2022-07-06T07:22:22;1.50;;;0.77;;
46777;SDS011;32536;47.128;8.746;2022-07-06T07:24:50;1.52;;;0.70;;
46777;SDS011;32536;47.128;8.746;2022-07-06T07:27:17;2.17;;;1.15;;
46777;SDS011;32536;47.128;8.746;2022-07-06T07:29:43;1.88;;;0.90;;
46777;SDS011;32536;47.128;8.746;2022-07-06T07:32:10;2.63;;;1.02;;
46777;SDS011;32536;47.128;8.746;2022-07-06T07:34:37;2.08;;;1.05;;
46777;SDS011;32536;47.128;8.746;2022-07-06T07:37:04;1.80;;;0.90;;
46777;SDS011;32536;47.128;8.746;2022-07-06T07:39:30;2.35;;;1.63;;
46777;SDS011;32536;47.128;8.746;2022-07-06T07:41:57;2.08;;;1.08;;
46777;SDS011;32536;47.128;8.746;2022-07-06T07:44:24;2.10;;;1.17;;
46777;SDS011;32536;47.128;8.746;2022-07-06T07:46:52;1.95;;;1.15;;
46777;SDS011;32536;47.128;8.746;2022-07-06T07:49:19;2.25;;;1.20;;
46777;SDS011;32536;47.128;8.746;2022-07-06T07:51:49;2.55;;;1.08;;
46777;SDS011;32536;47.128;8.746;2022-07-06T07:54:17;2.05;;;1.10;;
46777;SDS011;32536;47.128;8.746;2022-07-06T07:56:44;3.35;;;1.17;;
46777;SDS011;32536;47.128;8.746;2022-07-06T07:59:10;2.33;;;1.15;;
46777;SDS011;32536;47.128;8.746;2022-07-06T08:01:37;1.80;;;0.82;;
46777;SDS011;32536;47.128;8.746;2022-07-06T08:04:04;1.73;;;0.85;;
46777;SDS011;32536;47.128;8.746;2022-07-06T08:06:31;1.80;;;0.93;;
46777;SDS011;32536;47.128;8.746;2022-07-06T08:08:58;1.90;;;1.00;;
46777;SDS011;32536;47.128;8.746;2022-07-06T08:11:25;1.55;;;0.95;;
46777;SDS011;32536;47.128;8.746;2022-07-06T08:13:51;2.08;;;1.08;;
46777;SDS011;32536;47.128;8.746;2022-07-06T08:16:18;1.58;;;0.85;;
46777;SDS011;32536;47.128;8.746;2022-07-06T08:18:45;1.98;;;1.05;;
46777;SDS011;32536;47.128;8.746;2022-07-06T08:21:25;3.00;;;1.00;;
46777;SDS011;32536;47.128;8.746;2022-07-06T08:23:53;2.10;;;0.85;;
46777;SDS011;32536;47.128;8.746;2022-07-06T08:26:21;2.47;;;1.25;;
46777;SDS011;32536;47.128;8.746;2022-07-06T08:28:48;2.20;;;0.95;;
46777;SDS011;32536;47.128;8.746;2022-07-06T08:31:16;2.15;;;1.02;;
46777;SDS011;32536;47.128;8.746;2022-07-06T08:33:42;1.98;;;0.90;;
46777;SDS011;32536;47.128;8.746;2022-07-06T08:36:09;2.20;;;0.80;;
46777;SDS011;32536;47.128;8.746;2022-07-06T08:38:36;2.00;;;0.88;;
46777;SDS011;32536;47.128;8.746;2022-07-06T08:41:03;1.85;;;0.93;;
46777;SDS011;32536;47.128;8.746;2022-07-06T08:43:32;1.77;;;1.00;;
46777;SDS011;32536;47.128;8.746;2022-07-06T08:46:01;2.35;;;1.00;;
46777;SDS011;32536;47.128;8.746;2022-07-06T08:48:28;1.63;;;0.90;;
46777;SDS011;32536;47.128;8.746;2022-07-06T08:51:02;1.63;;;0.90;;
46777;SDS011;32536;47.128;8.746;2022-07-06T08:53:30;2.42;;;1.20;;
46777;SDS011;32536;47.128;8.746;2022-07-06T08:55:58;1.83;;;0.90;;
46777;SDS011;32536;47.128;8.746;2022-07-06T08:58:27;1.88;;;0.82;;
46777;SDS011;32536;47.128;8.746;2022-07-06T09:00:54;2.35;;;1.25;;
46777;SDS011;32536;47.128;8.746;2022-07-06T09:03:23;2.00;;;0.95;;
46777;SDS011;32536;47.128;8.746;2022-07-06T09:05:50;2.13;;;0.95;;
46777;SDS011;32536;47.128;8.746;2022-07-06T09:08:18;1.50;;;0.90;;
46777;SDS011;32536;47.128;8.746;2022-07-06T09:10:46;2.42;;;0.77;;
46777;SDS011;32536;47.128;8.746;2022-07-06T09:13:13;2.38;;;1.27;;
46777;SDS011;32536;47.128;8.746;2022-07-06T09:15:40;1.85;;;0.98;;
46777;SDS011;32536;47.128;8.746;2022-07-06T09:18:06;1.85;;;0.98;;
46777;SDS011;32536;47.128;8.746;2022-07-06T09:20:34;1.67;;;0.90;;
46777;SDS011;32536;47.128;8.746;2022-07-06T09:23:02;1.95;;;0.98;;
46777;SDS011;32536;47.128;8.746;2022-07-06T09:25:31;1.80;;;0.73;;
46777;SDS011;32536;47.128;8.746;2022-07-06T09:28:00;2.45;;;0.98;;
46777;SDS011;32536;47.128;8.746;2022-07-06T09:30:28;2.20;;;0.93;;
46777;SDS011;32536;47.128;8.746;2022-07-06T09:32:56;1.98;;;1.02;;
46777;SDS011;32536;47.128;8.746;2022-07-06T09:35:29;1.95;;;1.00;;
46777;SDS011;32536;47.128;8.746;2022-07-06T09:38:06;1.63;;;0.80;;
46777;SDS011;32536;47.128;8.746;2022-07-06T09:40:38;2.33;;;1.13;;
46777;SDS011;32536;47.128;8.746;2022-07-06T09:45:39;2.17;;;0.90;;
46777;SDS011;32536;47.128;8.746;2022-07-06T09:48:10;2.40;;;1.05;;
46777;SDS011;32536;47.128;8.746;2022-07-06T09:50:50;3.20;;;1.40;;
46777;SDS011;32536;47.128;8.746;2022-07-06T09:53:24;2.00;;;0.70;;
46777;SDS011;32536;47.128;8.746;2022-07-06T09:55:53;2.10;;;0.90;;
46777;SDS011;32536;47.128;8.746;2022-07-06T09:58:22;2.50;;;1.55;;
46777;SDS011;32536;47.128;8.746;2022-07-06T10:00:49;1.75;;;0.77;;
46777;SDS011;32536;47.128;8.746;2022-07-06T10:03:17;2.08;;;1.15;;
46777;SDS011;32536;47.128;8.746;2022-07-06T10:05:46;2.50;;;1.02;;
46777;SDS011;32536;47.128;8.746;2022-07-06T10:08:15;1.73;;;0.90;;
46777;SDS011;32536;47.128;8.746;2022-07-06T10:10:43;2.45;;;0.82;;
46777;SDS011;32536;47.128;8.746;2022-07-06T10:13:10;2.00;;;1.00;;
46777;SDS011;32536;47.128;8.746;2022-07-06T10:15:39;1.88;;;0.98;;
46777;SDS011;32536;47.128;8.746;2022-07-06T10:18:07;1.65;;;1.10;;
46777;SDS011;32536;47.128;8.746;2022-07-06T10:20:36;1.70;;;0.80;;
46777;SDS011;32536;47.128;8.746;2022-07-06T10:23:05;1.35;;;0.85;;
46777;SDS011;32536;47.128;8.746;2022-07-06T10:25:34;1.88;;;1.08;;
46777;SDS011;32536;47.128;8.746;2022-07-06T10:28:02;2.25;;;1.02;;
46777;SDS011;32536;47.128;8.746;2022-07-06T10:30:36;2.65;;;1.00;;
46777;SDS011;32536;47.128;8.746;2022-07-06T10:33:03;2.47;;;1.30;;
46777;SDS011;32536;47.128;8.746;2022-07-06T10:35:30;1.63;;;0.82;;
46777;SDS011;32536;47.128;8.746;2022-07-06T10:40:38;2.30;;;1.10;;
46777;SDS011;32536;47.128;8.746;2022-07-06T10:46:06;3.33;;;2.20;;
46777;SDS011;32536;47.128;8.746;2022-07-06T10:48:35;2.45;;;1.38;;
46777;SDS011;32536;47.128;8.746;2022-07-06T10:51:07;1.70;;;0.90;;
46777;SDS011;32536;47.128;8.746;2022-07-06T10:53:37;3.28;;;1.35;;
46777;SDS011;32536;47.128;8.746;2022-07-06T10:56:07;3.17;;;1.02;;
46777;SDS011;32536;47.128;8.746;2022-07-06T11:01:14;1.98;;;1.05;;
46777;SDS011;32536;47.128;8.746;2022-07-06T11:03:52;2.15;;;0.90;;
46777;SDS011;32536;47.128;8.746;2022-07-06T11:06:34;2.13;;;1.20;;
46777;SDS011;32536;47.128;8.746;2022-07-06T11:09:06;1.70;;;0.95;;
46777;SDS011;32536;47.128;8.746;2022-07-06T11:17:02;1.90;;;1.02;;
46777;SDS011;32536;47.128;8.746;2022-07-06T11:19:28;2.08;;;1.02;;
46777;SDS011;32536;47.128;8.746;2022-07-06T11:24:36;1.77;;;0.90;;
46777;SDS011;32536;47.128;8.746;2022-07-06T11:27:05;2.10;;;1.08;;
46777;SDS011;32536;47.128;8.746;2022-07-06T11:29:33;1.95;;;0.88;;
46777;SDS011;32536;47.128;8.746;2022-07-06T11:32:05;3.20;;;1.73;;
46777;SDS011;32536;47.128;8.746;2022-07-06T11:34:44;3.75;;;2.35;;
46777;SDS011;32536;47.128;8.746;2022-07-06T11:37:12;3.25;;;1.45;;
46777;SDS011;32536;47.128;8.746;2022-07-06T11:39:41;2.50;;;1.40;;
46777;SDS011;32536;47.128;8.746;2022-07-06T11:42:10;3.47;;;1.60;;
46777;SDS011;32536;47.128;8.746;2022-07-06T11:44:39;2.80;;;1.27;;
46777;SDS011;32536;47.128;8.746;2022-07-06T11:47:08;2.60;;;1.15;;
46777;SDS011;32536;47.128;8.746;2022-07-06T11:49:38;3.45;;;1.55;;
46777;SDS011;32536;47.128;8.746;2022-07-06T11:52:11;3.20;;;1.48;;
46777;SDS011;32536;47.128;8.746;2022-07-06T11:54:39;2.95;;;1.58;;
46777;SDS011;32536;47.128;8.746;2022-07-06T11:57:08;2.97;;;1.55;;
46777;SDS011;32536;47.128;8.746;2022-07-06T11:59:37;4.47;;;2.20;;
46777;SDS011;32536;47.128;8.746;2022-07-06T12:02:07;4.45;;;2.08;;
46777;SDS011;32536;47.128;8.746;2022-07-06T12:04:37;3.35;;;1.67;;
46777;SDS011;32536;47.128;8.746;2022-07-06T12:07:13;3.38;;;1.88;;
46777;SDS011;32536;47.128;8.746;2022-07-06T12:09:43;3.33;;;1.73;;
46777;SDS011;32536;47.128;8.746;2022-07-06T12:12:12;2.97;;;1.70;;
46777;SDS011;32536;47.128;8.746;2022-07-06T12:14:41;2.67;;;1.45;;
46777;SDS011;32536;47.128;8.746;2022-07-06T12:17:09;2.22;;;0.90;;
46777;SDS011;32536;47.128;8.746;2022-07-06T12:19:41;3.83;;;1.17;;
46777;SDS011;32536;47.128;8.746;2022-07-06T12:22:08;2.67;;;1.77;;
46777;SDS011;32536;47.128;8.746;2022-07-06T12:24:36;2.53;;;1.10;;
46777;SDS011;32536;47.128;8.746;2022-07-06T12:27:10;2.53;;;1.02;;
46777;SDS011;32536;47.128;8.746;2022-07-06T12:29:39;2.53;;;1.20;;
46777;SDS011;32536;47.128;8.746;2022-07-06T12:32:06;2.38;;;1.02;;
46777;SDS011;32536;47.128;8.746;2022-07-06T12:34:39;1.98;;;0.88;;
46777;SDS011;32536;47.128;8.746;2022-07-06T12:37:07;3.42;;;1.80;;
46777;SDS011;32536;47.128;8.746;2022-07-06T12:39:43;1.98;;;1.00;;
46777;SDS011;32536;47.128;8.746;2022-07-06T12:42:15;3.03;;;1.15;;
46777;SDS011;32536;47.128;8.746;2022-07-06T12:44:44;3.47;;;1.70;;
46777;SDS011;32536;47.128;8.746;2022-07-06T12:47:20;4.53;;;2.10;;
46777;SDS011;32536;47.128;8.746;2022-07-06T12:50:03;2.80;;;1.33;;
46777;SDS011;32536;47.128;8.746;2022-07-06T12:52:36;3.08;;;1.30;;
46777;SDS011;32536;47.128;8.746;2022-07-06T12:55:03;2.38;;;1.38;;
46777;SDS011;32536;47.128;8.746;2022-07-06T12:57:46;2.83;;;1.30;;
46777;SDS011;32536;47.128;8.746;2022-07-06T13:00:17;3.78;;;2.00;;
46777;SDS011;32536;47.128;8.746;2022-07-06T13:02:45;3.63;;;1.58;;
46777;SDS011;32536;47.128;8.746;2022-07-06T13:05:22;2.50;;;1.25;;
46777;SDS011;32536;47.128;8.746;2022-07-06T13:07:54;4.75;;;1.85;;
46777;SDS011;32536;47.128;8.746;2022-07-06T13:10:25;3.42;;;2.28;;
46777;SDS011;32536;47.128;8.746;2022-07-06T13:12:52;2.47;;;1.17;;
46777;SDS011;32536;47.128;8.746;2022-07-06T13:15:19;3.78;;;1.20;;
46777;SDS011;32536;47.128;8.746;2022-07-06T13:17:46;2.67;;;1.40;;
46777;SDS011;32536;47.128;8.746;2022-07-06T13:20:13;3.53;;;1.70;;
46777;SDS011;32536;47.128;8.746;2022-07-06T13:22:42;2.13;;;1.08;;
46777;SDS011;32536;47.128;8.746;2022-07-06T13:25:09;3.20;;;1.38;;
46777;SDS011;32536;47.128;8.746;2022-07-06T13:27:36;2.83;;;1.27;;
46777;SDS011;32536;47.128;8.746;2022-07-06T13:30:03;2.05;;;0.98;;
46777;SDS011;32536;47.128;8.746;2022-07-06T13:32:30;2.10;;;1.20;;
46777;SDS011;32536;47.128;8.746;2022-07-06T13:34:58;2.33;;;1.08;;
46777;SDS011;32536;47.128;8.746;2022-07-06T13:37:25;2.40;;;1.08;;
46777;SDS011;32536;47.128;8.746;2022-07-06T13:39:51;3.05;;;1.60;;
46777;SDS011;32536;47.128;8.746;2022-07-06T13:42:18;3.10;;;1.35;;
46777;SDS011;32536;47.128;8.746;2022-07-06T13:44:45;3.35;;;1.55;;
46777;SDS011;32536;47.128;8.746;2022-07-06T13:47:11;2.90;;;1.88;;
46777;SDS011;32536;47.128;8.746;2022-07-06T13:49:38;2.70;;;1.38;;
46777;SDS011;32536;47.128;8.746;2022-07-06T13:52:05;2.53;;;1.33;;
46777;SDS011;32536;47.128;8.746;2022-07-06T13:54:32;3.55;;;1.52;;
46777;SDS011;32536;47.128;8.746;2022-07-06T13:57:03;2.90;;;1.48;;
46777;SDS011;32536;47.128;8.746;2022-07-06T14:01:57;2.70;;;1.60;;
46777;SDS011;32536;47.128;8.746;2022-07-06T14:04:25;2.92;;;1.25;;
46777;SDS011;32536;47.128;8.746;2022-07-06T14:06:51;2.72;;;1.23;;
46777;SDS011;32536;47.128;8.746;2022-07-06T14:09:18;2.92;;;1.48;;
46777;SDS011;32536;47.128;8.746;2022-07-06T14:11:45;2.85;;;1.30;;
46777;SDS011;32536;47.128;8.746;2022-07-06T14:14:12;2.65;;;1.73;;
46777;SDS011;32536;47.128;8.746;2022-07-06T14:16:39;2.47;;;1.05;;
46777;SDS011;32536;47.128;8.746;2022-07-06T14:19:06;2.45;;;1.58;;
46777;SDS011;32536;47.128;8.746;2022-07-06T14:21:48;2.13;;;1.00;;
46777;SDS011;32536;47.128;8.746;2022-07-06T14:24:15;1.77;;;0.80;;
46777;SDS011;32536;47.128;8.746;2022-07-06T14:26:41;1.73;;;0.68;;
46777;SDS011;32536;47.128;8.746;2022-07-06T14:29:08;2.47;;;1.25;;
46777;SDS011;32536;47.128;8.746;2022-07-06T14:31:35;3.05;;;1.23;;
46777;SDS011;32536;47.128;8.746;2022-07-06T14:34:02;2.13;;;0.95;;
46777;SDS011;32536;47.128;8.746;2022-07-06T14:36:29;2.80;;;1.52;;
46777;SDS011;32536;47.128;8.746;2022-07-06T14:38:56;2.20;;;1.17;;
46777;SDS011;32536;47.128;8.746;2022-07-06T14:41:22;2.20;;;1.20;;
46777;SDS011;32536;47.128;8.746;2022-07-06T14:43:49;2.20;;;1.13;;
46777;SDS011;32536;47.128;8.746;2022-07-06T14:46:16;1.73;;;0.95;;
46777;SDS011;32536;47.128;8.746;2022-07-06T14:48:42;1.48;;;0.80;;
46777;SDS011;32536;47.128;8.746;2022-07-06T14:51:09;2.15;;;0.95;;
46777;SDS011;32536;47.128;8.746;2022-07-06T14:53:36;2.35;;;1.23;;
46777;SDS011;32536;47.128;8.746;2022-07-06T14:56:03;1.42;;;0.80;;
46777;SDS011;32536;47.128;8.746;2022-07-06T14:58:30;2.70;;;2.17;;
46777;SDS011;32536;47.128;8.746;2022-07-06T15:00:57;2.05;;;0.93;;
46777;SDS011;32536;47.128;8.746;2022-07-06T15:03:24;2.30;;;1.00;;
46777;SDS011;32536;47.128;8.746;2022-07-06T15:05:51;2.67;;;1.85;;
46777;SDS011;32536;47.128;8.746;2022-07-06T15:08:18;2.63;;;2.03;;
46777;SDS011;32536;47.128;8.746;2022-07-06T15:10:45;2.83;;;1.08;;
46777;SDS011;32536;47.128;8.746;2022-07-06T15:13:12;3.50;;;0.90;;
46777;SDS011;32536;47.128;8.746;2022-07-06T15:15:39;2.97;;;1.55;;
46777;SDS011;32536;47.128;8.746;2022-07-06T15:18:05;3.20;;;1.58;;